sensor_id;sensor_type;location;lat;lon;timestamp;temperature;humidity
9939;DHT22;5008;50.656;7.188;2024-03-02T05:00:54;8.30;99.90
9939;DHT22;5008;50.656;7.188;2024-03-02T05:03:22;8.20;99.90
9939;DHT22;5008;50.656;7.188;2024-03-02T05:05:49;8.30;99.90
9939;DHT22;5008;50.656;7.188;2024-03-02T05:08:16;8.40;99.90
9939;DHT22;5008;50.656;7.188;2024-03-02T05:10:43;8.30;99.90
9939;DHT22;5008;50.656;7.188;2024-03-02T05:13:10;8.30;99.90
9939;DHT22;5008;50.656;7.188;2024-03-02T05:15:35;8.20;99.90
9939;DHT22;5008;50.656;7.188;2024-03-02T05:18:04;8.20;99.90
9939;DHT22;5008;50.656;7.188;2024-03-02T05:20:31;8.20;99.90
9939;DHT22;5008;50.656;7.188;2024-03-02T05:22:58;8.20;99.90
9939;DHT22;5008;50.656;7.188;2024-03-02T05:25:25;8.20;99.90
9939;DHT22;5008;50.656;7.188;2024-03-02T05:27:51;8.20;99.90
9939;DHT22;5008;50.656;7.188;2024-03-02T05:30:18;8.10;99.90
9939;DHT22;5008;50.656;7.188;2024-03-02T05:32:45;8.10;99.90
9939;DHT22;5008;50.656;7.188;2024-03-02T05:35:13;8.20;99.90
9939;DHT22;5008;50.656;7.188;2024-03-02T05:37:40;8.20;99.90
9939;DHT22;5008;50.656;7.188;2024-03-02T05:40:08;8.20;99.90
9939;DHT22;5008;50.656;7.188;2024-03-02T05:42:36;8.20;99.90
9939;DHT22;5008;50.656;7.188;2024-03-02T05:45:04;8.20;99.90
9939;DHT22;5008;50.656;7.188;2024-03-02T05:47:31;8.10;99.90
9939;DHT22;5008;50.656;7.188;2024-03-02T05:49:58;8.20;99.90
9939;DHT22;5008;50.656;7.188;2024-03-02T05:52:26;8.20;99.90
9939;DHT22;5008;50.656;7.188;2024-03-02T05:54:53;8.10;99.90
9939;DHT22;5008;50.656;7.188;2024-03-02T05:57:20;8.10;99.90
9939;DHT22;5008;50.656;7.188;2024-03-02T05:59:59;8.00;99.90
9939;DHT22;5008;50.656;7.188;2024-03-02T06:02:26;8.00;99.90
9939;DHT22;5008;50.656;7.188;2024-03-02T06:04:55;8.00;99.90
9939;DHT22;5008;50.656;7.188;2024-03-02T06:07:22;8.00;99.90
9939;DHT22;5008;50.656;7.188;2024-03-02T06:09:50;8.00;99.90
9939;DHT22;5008;50.656;7.188;2024-03-02T06:12:18;8.10;99.90
9939;DHT22;5008;50.656;7.188;2024-03-02T06:14:45;8.10;99.90
9939;DHT22;5008;50.656;7.188;2024-03-02T06:17:12;8.20;99.90
9939;DHT22;5008;50.656;7.188;2024-03-02T06:19:39;8.40;99.90
9939;DHT22;5008;50.656;7.188;2024-03-02T06:22:06;8.30;99.90
9939;DHT22;5008;50.656;7.188;2024-03-02T06:24:35;8.30;99.90
9939;DHT22;5008;50.656;7.188;2024-03-02T06:27:04;8.30;99.90
9939;DHT22;5008;50.656;7.188;2024-03-02T06:29:32;8.30;99.90
9939;DHT22;5008;50.656;7.188;2024-03-02T06:31:58;8.40;99.90
9939;DHT22;5008;50.656;7.188;2024-03-02T06:34:25;8.50;99.90
9939;DHT22;5008;50.656;7.188;2024-03-02T06:36:52;8.40;99.90
9939;DHT22;5008;50.656;7.188;2024-03-02T06:39:18;8.30;99.90
9939;DHT22;5008;50.656;7.188;2024-03-02T06:41:45;8.20;99.90
9939;DHT22;5008;50.656;7.188;2024-03-02T06:44:14;8.10;99.90
9939;DHT22;5008;50.656;7.188;2024-03-02T06:46:40;8.10;99.90
9939;DHT22;5008;50.656;7.188;2024-03-02T06:49:07;8.10;99.90
9939;DHT22;5008;50.656;7.188;2024-03-02T06:51:35;8.20;99.90
9939;DHT22;5008;50.656;7.188;2024-03-02T06:54:02;8.30;99.90
9939;DHT22;5008;50.656;7.188;2024-03-02T06:56:29;8.40;99.90
9939;DHT22;5008;50.656;7.188;2024-03-02T06:58:58;8.40;99.90
9939;DHT22;5008;50.656;7.188;2024-03-02T07:01:28;8.40;99.90
9939;DHT22;5008;50.656;7.188;2024-03-02T07:04:01;8.40;99.90
9939;DHT22;5008;50.656;7.188;2024-03-02T07:06:28;8.30;99.90
9939;DHT22;5008;50.656;7.188;2024-03-02T07:08:54;8.20;99.90
9939;DHT22;5008;50.656;7.188;2024-03-02T07:11:41;8.20;99.90
9939;DHT22;5008;50.656;7.188;2024-03-02T07:14:16;8.20;99.90
9939;DHT22;5008;50.656;7.188;2024-03-02T07:16:44;8.30;99.90
9939;DHT22;5008;50.656;7.188;2024-03-02T07:19:11;8.30;99.90
9939;DHT22;5008;50.656;7.188;2024-03-02T07:21:37;8.30;99.90
9939;DHT22;5008;50.656;7.188;2024-03-02T07:24:04;8.30;99.90
9939;DHT22;5008;50.656;7.188;2024-03-02T07:26:32;8.40;99.90
9939;DHT22;5008;50.656;7.188;2024-03-02T07:28:58;8.40;99.90
9939;DHT22;5008;50.656;7.188;2024-03-02T07:31:25;8.50;99.90
9939;DHT22;5008;50.656;7.188;2024-03-02T07:33:53;8.60;99.90
9939;DHT22;5008;50.656;7.188;2024-03-02T07:36:20;8.70;99.90
9939;DHT22;5008;50.656;7.188;2024-03-02T07:38:47;8.90;99.90
9939;DHT22;5008;50.656;7.188;2024-03-02T07:41:15;9.20;99.90
9939;DHT22;5008;50.656;7.188;2024-03-02T07:43:42;9.40;99.90
9939;DHT22;5008;50.656;7.188;2024-03-02T07:46:09;9.40;99.90
9939;DHT22;5008;50.656;7.188;2024-03-02T07:48:36;9.50;99.90
9939;DHT22;5008;50.656;7.188;2024-03-02T07:51:04;9.50;99.90
9939;DHT22;5008;50.656;7.188;2024-03-02T07:53:31;9.50;99.90
9939;DHT22;5008;50.656;7.188;2024-03-02T07:55:58;9.50;99.90
9939;DHT22;5008;50.656;7.188;2024-03-02T07:58:28;9.50;99.90
9939;DHT22;5008;50.656;7.188;2024-03-02T08:00:56;9.40;99.90
9939;DHT22;5008;50.656;7.188;2024-03-02T08:03:23;9.40;99.90
9939;DHT22;5008;50.656;7.188;2024-03-02T08:05:50;9.40;99.90
9939;DHT22;5008;50.656;7.188;2024-03-02T08:08:18;9.40;99.90
9939;DHT22;5008;50.656;7.188;2024-03-02T08:10:44;9.40;99.90
9939;DHT22;5008;50.656;7.188;2024-03-02T08:13:13;9.60;99.90
9939;DHT22;5008;50.656;7.188;2024-03-02T08:15:40;10.00;99.90
9939;DHT22;5008;50.656;7.188;2024-03-02T08:18:07;10.20;99.90
9939;DHT22;5008;50.656;7.188;2024-03-02T08:20:34;10.20;99.90
9939;DHT22;5008;50.656;7.188;2024-03-02T08:23:09;10.20;99.90
9939;DHT22;5008;50.656;7.188;2024-03-02T08:25:37;10.40;99.90
9939;DHT22;5008;50.656;7.188;2024-03-02T08:28:04;10.80;99.90
9939;DHT22;5008;50.656;7.188;2024-03-02T08:30:31;10.80;99.90
9939;DHT22;5008;50.656;7.188;2024-03-02T08:32:57;10.80;99.90
9939;DHT22;5008;50.656;7.188;2024-03-02T08:35:24;10.50;99.90
9939;DHT22;5008;50.656;7.188;2024-03-02T08:37:58;10.40;99.90
9939;DHT22;5008;50.656;7.188;2024-03-02T08:40:26;10.30;99.90
9939;DHT22;5008;50.656;7.188;2024-03-02T08:42:54;10.20;99.90
9939;DHT22;5008;50.656;7.188;2024-03-02T08:45:21;10.20;99.90
9939;DHT22;5008;50.656;7.188;2024-03-02T08:47:49;10.20;99.90
9939;DHT22;5008;50.656;7.188;2024-03-02T08:50:16;10.20;99.90
9939;DHT22;5008;50.656;7.188;2024-03-02T08:52:43;10.30;99.90
9939;DHT22;5008;50.656;7.188;2024-03-02T08:55:10;10.40;99.90
9939;DHT22;5008;50.656;7.188;2024-03-02T08:57:37;10.40;99.90
9939;DHT22;5008;50.656;7.188;2024-03-02T09:00:07;10.50;99.90
9939;DHT22;5008;50.656;7.188;2024-03-02T09:02:34;10.40;99.90
9939;DHT22;5008;50.656;7.188;2024-03-02T09:05:01;10.50;99.90
9939;DHT22;5008;50.656;7.188;2024-03-02T09:07:28;10.50;99.90
9939;DHT22;5008;50.656;7.188;2024-03-02T09:09:55;10.50;99.90
9939;DHT22;5008;50.656;7.188;2024-03-02T09:12:22;10.50;99.90
9939;DHT22;5008;50.656;7.188;2024-03-02T09:14:49;10.60;99.90
9939;DHT22;5008;50.656;7.188;2024-03-02T09:17:17;10.60;99.90
9939;DHT22;5008;50.656;7.188;2024-03-02T09:19:44;10.50;99.90
9939;DHT22;5008;50.656;7.188;2024-03-02T09:22:10;10.60;99.90
9939;DHT22;5008;50.656;7.188;2024-03-02T09:24:37;10.60;99.90
9939;DHT22;5008;50.656;7.188;2024-03-02T09:27:04;10.70;99.90
9939;DHT22;5008;50.656;7.188;2024-03-02T09:29:31;10.70;99.90
9939;DHT22;5008;50.656;7.188;2024-03-02T09:31:58;10.80;99.90
9939;DHT22;5008;50.656;7.188;2024-03-02T09:34:28;10.90;99.90
9939;DHT22;5008;50.656;7.188;2024-03-02T09:36:55;10.90;99.90
9939;DHT22;5008;50.656;7.188;2024-03-02T09:39:22;11.00;99.90
9939;DHT22;5008;50.656;7.188;2024-03-02T09:41:51;11.00;99.90
9939;DHT22;5008;50.656;7.188;2024-03-02T09:44:18;11.00;99.90
9939;DHT22;5008;50.656;7.188;2024-03-02T09:46:48;11.10;99.90
9939;DHT22;5008;50.656;7.188;2024-03-02T09:49:15;11.20;99.90
9939;DHT22;5008;50.656;7.188;2024-03-02T09:51:47;11.20;99.90
9939;DHT22;5008;50.656;7.188;2024-03-02T09:54:14;11.30;99.90
9939;DHT22;5008;50.656;7.188;2024-03-02T09:56:41;11.40;99.90
9939;DHT22;5008;50.656;7.188;2024-03-02T09:59:11;11.50;99.90
9939;DHT22;5008;50.656;7.188;2024-03-02T10:01:56;11.50;99.90
9939;DHT22;5008;50.656;7.188;2024-03-02T10:04:24;11.50;99.90
9939;DHT22;5008;50.656;7.188;2024-03-02T10:07:10;11.50;99.90
9939;DHT22;5008;50.656;7.188;2024-03-02T10:09:37;11.60;99.90
9939;DHT22;5008;50.656;7.188;2024-03-02T10:12:09;11.70;99.90
9939;DHT22;5008;50.656;7.188;2024-03-02T10:14:37;11.80;99.90
9939;DHT22;5008;50.656;7.188;2024-03-02T10:17:04;11.80;99.90
9939;DHT22;5008;50.656;7.188;2024-03-02T10:19:32;11.90;99.90
9939;DHT22;5008;50.656;7.188;2024-03-02T10:22:02;12.10;99.90
9939;DHT22;5008;50.656;7.188;2024-03-02T10:24:35;12.30;99.90
9939;DHT22;5008;50.656;7.188;2024-03-02T10:27:07;12.40;99.90
9939;DHT22;5008;50.656;7.188;2024-03-02T10:29:36;12.50;99.90
9939;DHT22;5008;50.656;7.188;2024-03-02T10:32:04;12.60;99.90
9939;DHT22;5008;50.656;7.188;2024-03-02T10:34:32;12.70;99.90
9939;DHT22;5008;50.656;7.188;2024-03-02T10:36:59;12.90;99.90
9939;DHT22;5008;50.656;7.188;2024-03-02T10:39:28;12.90;99.90
9939;DHT22;5008;50.656;7.188;2024-03-02T10:41:56;13.10;99.90
9939;DHT22;5008;50.656;7.188;2024-03-02T10:44:23;13.10;99.90
9939;DHT22;5008;50.656;7.188;2024-03-02T10:46:52;13.00;99.90
9939;DHT22;5008;50.656;7.188;2024-03-02T10:49:20;12.90;99.90
9939;DHT22;5008;50.656;7.188;2024-03-02T10:51:49;12.80;99.90
9939;DHT22;5008;50.656;7.188;2024-03-02T10:54:16;12.80;99.90
9939;DHT22;5008;50.656;7.188;2024-03-02T10:56:46;12.80;99.90
9939;DHT22;5008;50.656;7.188;2024-03-02T10:59:17;12.90;99.90
9939;DHT22;5008;50.656;7.188;2024-03-02T11:01:48;13.00;99.90
9939;DHT22;5008;50.656;7.188;2024-03-02T11:04:17;13.00;99.90
9939;DHT22;5008;50.656;7.188;2024-03-02T11:06:48;13.00;99.90
9939;DHT22;5008;50.656;7.188;2024-03-02T11:09:18;13.10;99.90
9939;DHT22;5008;50.656;7.188;2024-03-02T11:11:54;13.10;99.90
9939;DHT22;5008;50.656;7.188;2024-03-02T11:14:24;13.10;99.90
9939;DHT22;5008;50.656;7.188;2024-03-02T11:16:52;13.10;99.90
9939;DHT22;5008;50.656;7.188;2024-03-02T11:19:19;13.10;99.90
9939;DHT22;5008;50.656;7.188;2024-03-02T11:21:46;13.20;99.90
9939;DHT22;5008;50.656;7.188;2024-03-02T11:24:28;13.20;99.90
9939;DHT22;5008;50.656;7.188;2024-03-02T11:27:00;13.20;99.90
9939;DHT22;5008;50.656;7.188;2024-03-02T11:29:46;13.30;99.90
9939;DHT22;5008;50.656;7.188;2024-03-02T11:32:15;13.40;99.90
9939;DHT22;5008;50.656;7.188;2024-03-02T11:34:43;13.50;99.90
9939;DHT22;5008;50.656;7.188;2024-03-02T11:37:12;13.60;99.90
9939;DHT22;5008;50.656;7.188;2024-03-02T11:39:39;13.60;99.90
9939;DHT22;5008;50.656;7.188;2024-03-02T11:42:08;13.60;99.90
9939;DHT22;5008;50.656;7.188;2024-03-02T11:44:35;13.80;99.90
9939;DHT22;5008;50.656;7.188;2024-03-02T11:47:06;13.90;99.90
9939;DHT22;5008;50.656;7.188;2024-03-02T11:49:40;14.00;99.90
9939;DHT22;5008;50.656;7.188;2024-03-02T11:52:11;14.00;99.90
9939;DHT22;5008;50.656;7.188;2024-03-02T11:54:40;14.10;99.90
9939;DHT22;5008;50.656;7.188;2024-03-02T11:57:14;14.10;99.90
9939;DHT22;5008;50.656;7.188;2024-03-02T11:59:41;14.10;99.90
9939;DHT22;5008;50.656;7.188;2024-03-02T12:02:14;14.10;99.90
9939;DHT22;5008;50.656;7.188;2024-03-02T12:04:42;14.10;99.90
9939;DHT22;5008;50.656;7.188;2024-03-02T12:07:10;14.10;99.90
9939;DHT22;5008;50.656;7.188;2024-03-02T12:09:37;14.10;99.90
9939;DHT22;5008;50.656;7.188;2024-03-02T12:12:04;14.30;99.90
9939;DHT22;5008;50.656;7.188;2024-03-02T12:14:33;14.40;99.90
9939;DHT22;5008;50.656;7.188;2024-03-02T12:17:00;14.50;99.90
9939;DHT22;5008;50.656;7.188;2024-03-02T12:19:28;14.60;99.90
9939;DHT22;5008;50.656;7.188;2024-03-02T12:21:56;14.60;99.90
9939;DHT22;5008;50.656;7.188;2024-03-02T12:24:23;14.60;99.90
9939;DHT22;5008;50.656;7.188;2024-03-02T12:26:51;14.50;99.90
9939;DHT22;5008;50.656;7.188;2024-03-02T12:29:19;14.40;99.90
9939;DHT22;5008;50.656;7.188;2024-03-02T12:31:48;14.50;99.90
9939;DHT22;5008;50.656;7.188;2024-03-02T12:34:15;14.70;99.90
9939;DHT22;5008;50.656;7.188;2024-03-02T12:36:43;15.30;99.90
9939;DHT22;5008;50.656;7.188;2024-03-02T12:39:13;15.90;99.90
9939;DHT22;5008;50.656;7.188;2024-03-02T12:41:40;16.20;99.90
9939;DHT22;5008;50.656;7.188;2024-03-02T12:44:07;16.40;99.90
9939;DHT22;5008;50.656;7.188;2024-03-02T12:46:34;16.30;99.90
9939;DHT22;5008;50.656;7.188;2024-03-02T12:49:08;16.30;99.90
9939;DHT22;5008;50.656;7.188;2024-03-02T12:51:36;16.20;99.90
9939;DHT22;5008;50.656;7.188;2024-03-02T12:54:03;16.10;99.90
9939;DHT22;5008;50.656;7.188;2024-03-02T12:56:31;15.90;99.90
9939;DHT22;5008;50.656;7.188;2024-03-02T12:58:58;15.90;99.90
9939;DHT22;5008;50.656;7.188;2024-03-02T13:01:25;16.00;99.90
9939;DHT22;5008;50.656;7.188;2024-03-02T13:03:53;16.30;99.90
9939;DHT22;5008;50.656;7.188;2024-03-02T13:06:22;16.50;99.90
9939;DHT22;5008;50.656;7.188;2024-03-02T13:08:50;17.20;99.90
9939;DHT22;5008;50.656;7.188;2024-03-02T13:11:17;18.50;99.90
9939;DHT22;5008;50.656;7.188;2024-03-02T13:13:43;18.90;99.90
9939;DHT22;5008;50.656;7.188;2024-03-02T13:16:11;18.80;99.80
9939;DHT22;5008;50.656;7.188;2024-03-02T13:18:38;19.10;99.50
9939;DHT22;5008;50.656;7.188;2024-03-02T13:21:06;19.00;99.20
9939;DHT22;5008;50.656;7.188;2024-03-02T13:23:34;18.90;99.20
9939;DHT22;5008;50.656;7.188;2024-03-02T13:26:01;19.00;98.80
9939;DHT22;5008;50.656;7.188;2024-03-02T13:28:28;19.30;99.70
9939;DHT22;5008;50.656;7.188;2024-03-02T13:30:54;19.60;98.80
9939;DHT22;5008;50.656;7.188;2024-03-02T13:33:21;19.90;98.00
9939;DHT22;5008;50.656;7.188;2024-03-02T13:35:49;19.60;98.30
9939;DHT22;5008;50.656;7.188;2024-03-02T13:38:16;19.30;98.10
9939;DHT22;5008;50.656;7.188;2024-03-02T13:40:45;18.90;98.30
9939;DHT22;5008;50.656;7.188;2024-03-02T13:43:12;18.60;98.60
9939;DHT22;5008;50.656;7.188;2024-03-02T13:45:38;18.70;98.70
9939;DHT22;5008;50.656;7.188;2024-03-02T13:48:06;18.60;98.80
9939;DHT22;5008;50.656;7.188;2024-03-02T13:50:33;18.40;98.60
9939;DHT22;5008;50.656;7.188;2024-03-02T13:52:59;18.60;98.60
9939;DHT22;5008;50.656;7.188;2024-03-02T13:55:26;19.40;98.30
9939;DHT22;5008;50.656;7.188;2024-03-02T13:57:55;20.10;97.70
9939;DHT22;5008;50.656;7.188;2024-03-02T14:00:21;20.70;97.20
9939;DHT22;5008;50.656;7.188;2024-03-02T14:02:48;21.10;96.60
9939;DHT22;5008;50.656;7.188;2024-03-02T14:05:16;20.90;96.10
9939;DHT22;5008;50.656;7.188;2024-03-02T14:07:43;20.30;96.80
9939;DHT22;5008;50.656;7.188;2024-03-02T14:10:10;19.30;98.60
9939;DHT22;5008;50.656;7.188;2024-03-02T14:12:37;18.30;99.10
9939;DHT22;5008;50.656;7.188;2024-03-02T14:15:07;17.60;99.90
9939;DHT22;5008;50.656;7.188;2024-03-02T14:17:34;17.20;99.80
9939;DHT22;5008;50.656;7.188;2024-03-02T14:20:00;17.00;99.90
9939;DHT22;5008;50.656;7.188;2024-03-02T14:22:28;16.70;99.20
9939;DHT22;5008;50.656;7.188;2024-03-02T14:24:54;16.40;99.90
9939;DHT22;5008;50.656;7.188;2024-03-02T14:27:21;16.10;99.90
9939;DHT22;5008;50.656;7.188;2024-03-02T14:29:48;15.90;99.90
9939;DHT22;5008;50.656;7.188;2024-03-02T14:32:16;15.70;99.90
9939;DHT22;5008;50.656;7.188;2024-03-02T14:34:43;15.60;99.90
9939;DHT22;5008;50.656;7.188;2024-03-02T14:37:12;15.30;99.90
9939;DHT22;5008;50.656;7.188;2024-03-02T14:39:39;15.30;99.90
9939;DHT22;5008;50.656;7.188;2024-03-02T14:42:06;15.10;99.90
9939;DHT22;5008;50.656;7.188;2024-03-02T14:44:33;15.10;99.90
9939;DHT22;5008;50.656;7.188;2024-03-02T14:47:01;15.00;99.90
9939;DHT22;5008;50.656;7.188;2024-03-02T14:49:31;15.00;99.90
9939;DHT22;5008;50.656;7.188;2024-03-02T14:51:59;14.90;99.90
9939;DHT22;5008;50.656;7.188;2024-03-02T14:54:26;14.90;99.90
9939;DHT22;5008;50.656;7.188;2024-03-02T14:56:52;14.90;99.90
9939;DHT22;5008;50.656;7.188;2024-03-02T14:59:19;14.80;99.90
9939;DHT22;5008;50.656;7.188;2024-03-02T15:01:46;14.90;99.90
9939;DHT22;5008;50.656;7.188;2024-03-02T15:04:14;14.80;99.90
9939;DHT22;5008;50.656;7.188;2024-03-02T15:06:43;14.80;99.90
9939;DHT22;5008;50.656;7.188;2024-03-02T15:09:10;14.70;99.90
9939;DHT22;5008;50.656;7.188;2024-03-02T15:11:37;14.70;99.90
9939;DHT22;5008;50.656;7.188;2024-03-02T15:14:04;14.70;99.90
9939;DHT22;5008;50.656;7.188;2024-03-02T15:16:31;14.60;99.90
9939;DHT22;5008;50.656;7.188;2024-03-02T15:18:58;14.70;99.90
9939;DHT22;5008;50.656;7.188;2024-03-02T15:21:25;14.70;99.90
9939;DHT22;5008;50.656;7.188;2024-03-02T15:23:53;14.70;99.90
9939;DHT22;5008;50.656;7.188;2024-03-02T15:26:20;14.70;99.90
9939;DHT22;5008;50.656;7.188;2024-03-02T15:28:46;14.60;99.90
9939;DHT22;5008;50.656;7.188;2024-03-02T15:31:13;14.50;99.90
9939;DHT22;5008;50.656;7.188;2024-03-02T15:33:40;14.50;99.90
9939;DHT22;5008;50.656;7.188;2024-03-02T15:36:07;14.50;99.90
9939;DHT22;5008;50.656;7.188;2024-03-02T15:38:34;14.40;99.90
9939;DHT22;5008;50.656;7.188;2024-03-02T15:41:04;14.50;99.90
9939;DHT22;5008;50.656;7.188;2024-03-02T15:43:31;14.40;99.90
9939;DHT22;5008;50.656;7.188;2024-03-02T15:45:58;14.40;99.90
9939;DHT22;5008;50.656;7.188;2024-03-02T15:48:25;14.30;99.90
9939;DHT22;5008;50.656;7.188;2024-03-02T15:50:51;14.30;99.90
9939;DHT22;5008;50.656;7.188;2024-03-02T15:53:18;14.30;99.90
9939;DHT22;5008;50.656;7.188;2024-03-02T15:55:45;14.40;99.90
9939;DHT22;5008;50.656;7.188;2024-03-02T15:58:13;14.40;99.90
9939;DHT22;5008;50.656;7.188;2024-03-02T16:00:40;14.40;99.90
9939;DHT22;5008;50.656;7.188;2024-03-02T16:03:07;14.30;99.90
9939;DHT22;5008;50.656;7.188;2024-03-02T16:05:34;14.20;99.90
9939;DHT22;5008;50.656;7.188;2024-03-02T16:08:00;14.20;99.90
9939;DHT22;5008;50.656;7.188;2024-03-02T16:10:27;14.20;99.90
9939;DHT22;5008;50.656;7.188;2024-03-02T16:12:54;14.20;99.90
9939;DHT22;5008;50.656;7.188;2024-03-02T16:15:26;14.20;99.90
9939;DHT22;5008;50.656;7.188;2024-03-02T16:17:55;14.30;99.90
9939;DHT22;5008;50.656;7.188;2024-03-02T16:20:23;14.30;99.90
9939;DHT22;5008;50.656;7.188;2024-03-02T16:22:50;14.30;99.90
9939;DHT22;5008;50.656;7.188;2024-03-02T16:25:17;14.20;99.90
9939;DHT22;5008;50.656;7.188;2024-03-02T16:27:44;14.20;99.90
9939;DHT22;5008;50.656;7.188;2024-03-02T16:30:11;14.20;99.90
9939;DHT22;5008;50.656;7.188;2024-03-02T16:32:39;14.20;99.90
9939;DHT22;5008;50.656;7.188;2024-03-02T16:35:06;14.10;99.90
9939;DHT22;5008;50.656;7.188;2024-03-02T16:37:33;14.10;99.90
9939;DHT22;5008;50.656;7.188;2024-03-02T16:40:00;14.10;99.90
9939;DHT22;5008;50.656;7.188;2024-03-02T16:42:26;14.10;99.90
9939;DHT22;5008;50.656;7.188;2024-03-02T16:44:53;14.00;99.90
9939;DHT22;5008;50.656;7.188;2024-03-02T16:47:22;13.90;99.90
9939;DHT22;5008;50.656;7.188;2024-03-02T16:49:52;13.80;99.90
9939;DHT22;5008;50.656;7.188;2024-03-02T16:52:21;13.80;99.90
9939;DHT22;5008;50.656;7.188;2024-03-02T16:54:49;13.70;99.90
9939;DHT22;5008;50.656;7.188;2024-03-02T16:57:16;13.70;99.90
9939;DHT22;5008;50.656;7.188;2024-03-02T16:59:43;13.80;99.90
9939;DHT22;5008;50.656;7.188;2024-03-02T17:02:10;13.60;99.90
9939;DHT22;5008;50.656;7.188;2024-03-02T17:04:37;13.70;99.90
9939;DHT22;5008;50.656;7.188;2024-03-02T17:07:06;13.70;99.90
9939;DHT22;5008;50.656;7.188;2024-03-02T17:09:33;13.70;99.90
9939;DHT22;5008;50.656;7.188;2024-03-02T17:12:00;13.60;99.90
9939;DHT22;5008;50.656;7.188;2024-03-02T17:14:27;13.50;99.90
9939;DHT22;5008;50.656;7.188;2024-03-02T17:16:54;13.50;99.90
9939;DHT22;5008;50.656;7.188;2024-03-02T17:19:21;13.40;99.90
9939;DHT22;5008;50.656;7.188;2024-03-02T17:21:48;13.50;99.90
9939;DHT22;5008;50.656;7.188;2024-03-02T17:24:16;13.50;99.90
9939;DHT22;5008;50.656;7.188;2024-03-02T17:26:43;13.40;99.90
9939;DHT22;5008;50.656;7.188;2024-03-02T17:29:09;13.40;99.90
9939;DHT22;5008;50.656;7.188;2024-03-02T17:31:37;13.60;99.90
9939;DHT22;5008;50.656;7.188;2024-03-02T17:34:04;13.50;99.90
9939;DHT22;5008;50.656;7.188;2024-03-02T17:36:31;13.50;99.90
9939;DHT22;5008;50.656;7.188;2024-03-02T17:39:00;13.50;99.90
9939;DHT22;5008;50.656;7.188;2024-03-02T17:41:33;13.50;99.90
9939;DHT22;5008;50.656;7.188;2024-03-02T17:44:00;13.50;99.90
9939;DHT22;5008;50.656;7.188;2024-03-02T17:46:27;13.50;99.90
9939;DHT22;5008;50.656;7.188;2024-03-02T17:48:54;13.60;99.90
9939;DHT22;5008;50.656;7.188;2024-03-02T17:51:22;13.60;99.90
9939;DHT22;5008;50.656;7.188;2024-03-02T17:53:50;13.60;99.90
9939;DHT22;5008;50.656;7.188;2024-03-02T17:56:20;13.50;99.90
9939;DHT22;5008;50.656;7.188;2024-03-02T17:58:48;13.60;99.90
9939;DHT22;5008;50.656;7.188;2024-03-02T18:01:15;13.50;99.90
9939;DHT22;5008;50.656;7.188;2024-03-02T18:03:42;13.50;99.90
9939;DHT22;5008;50.656;7.188;2024-03-02T18:06:09;13.50;99.90
9939;DHT22;5008;50.656;7.188;2024-03-02T18:08:37;13.50;99.90
9939;DHT22;5008;50.656;7.188;2024-03-02T18:11:04;13.40;99.90
9939;DHT22;5008;50.656;7.188;2024-03-02T18:13:32;13.40;99.90
9939;DHT22;5008;50.656;7.188;2024-03-02T18:16:01;13.30;99.90
9939;DHT22;5008;50.656;7.188;2024-03-02T18:18:28;13.40;99.90
9939;DHT22;5008;50.656;7.188;2024-03-02T18:20:55;13.40;99.90
9939;DHT22;5008;50.656;7.188;2024-03-02T18:23:31;13.30;99.90
9939;DHT22;5008;50.656;7.188;2024-03-02T18:25:58;13.30;99.90
9939;DHT22;5008;50.656;7.188;2024-03-02T18:28:25;13.20;99.90
9939;DHT22;5008;50.656;7.188;2024-03-02T18:30:52;13.20;99.90
9939;DHT22;5008;50.656;7.188;2024-03-02T18:33:20;13.20;99.90
9939;DHT22;5008;50.656;7.188;2024-03-02T18:35:47;13.30;99.90
9939;DHT22;5008;50.656;7.188;2024-03-02T18:38:14;13.20;99.90
9939;DHT22;5008;50.656;7.188;2024-03-02T18:40:42;13.20;99.90
9939;DHT22;5008;50.656;7.188;2024-03-02T18:43:12;13.20;99.90
9939;DHT22;5008;50.656;7.188;2024-03-02T18:45:39;13.20;99.90
9939;DHT22;5008;50.656;7.188;2024-03-02T18:48:08;13.10;99.90
9939;DHT22;5008;50.656;7.188;2024-03-02T18:50:36;13.00;99.90
9939;DHT22;5008;50.656;7.188;2024-03-02T18:53:03;13.00;99.90
9939;DHT22;5008;50.656;7.188;2024-03-02T18:55:31;12.90;99.90
9939;DHT22;5008;50.656;7.188;2024-03-02T18:58:00;12.70;99.90
9939;DHT22;5008;50.656;7.188;2024-03-02T19:00:35;12.70;99.90
9939;DHT22;5008;50.656;7.188;2024-03-02T19:03:01;12.70;99.90
9939;DHT22;5008;50.656;7.188;2024-03-02T19:05:28;12.60;99.90
9939;DHT22;5008;50.656;7.188;2024-03-02T19:08:03;12.60;99.90
9939;DHT22;5008;50.656;7.188;2024-03-02T19:10:29;12.50;99.90
9939;DHT22;5008;50.656;7.188;2024-03-02T19:12:56;12.50;99.90
9939;DHT22;5008;50.656;7.188;2024-03-02T19:15:23;12.40;99.90
9939;DHT22;5008;50.656;7.188;2024-03-02T19:17:50;12.40;99.90
9939;DHT22;5008;50.656;7.188;2024-03-02T19:20:17;12.40;99.90
9939;DHT22;5008;50.656;7.188;2024-03-02T19:22:44;12.40;99.90
9939;DHT22;5008;50.656;7.188;2024-03-02T19:25:12;12.30;99.90
9939;DHT22;5008;50.656;7.188;2024-03-02T19:27:39;12.30;99.90
9939;DHT22;5008;50.656;7.188;2024-03-02T19:30:09;12.20;99.90
9939;DHT22;5008;50.656;7.188;2024-03-02T19:32:36;12.20;99.90
9939;DHT22;5008;50.656;7.188;2024-03-02T19:35:04;12.30;99.90
9939;DHT22;5008;50.656;7.188;2024-03-02T19:37:31;12.20;99.90
9939;DHT22;5008;50.656;7.188;2024-03-02T19:39:58;12.20;99.90
9939;DHT22;5008;50.656;7.188;2024-03-02T19:42:26;12.10;99.90
9939;DHT22;5008;50.656;7.188;2024-03-02T19:44:53;12.10;99.90
9939;DHT22;5008;50.656;7.188;2024-03-02T19:47:20;12.10;99.90
9939;DHT22;5008;50.656;7.188;2024-03-02T19:49:47;12.00;99.90
9939;DHT22;5008;50.656;7.188;2024-03-02T19:52:15;11.90;99.90
9939;DHT22;5008;50.656;7.188;2024-03-02T19:54:42;11.90;99.90
9939;DHT22;5008;50.656;7.188;2024-03-02T19:57:09;11.90;99.90
9939;DHT22;5008;50.656;7.188;2024-03-02T19:59:38;11.80;99.90
9939;DHT22;5008;50.656;7.188;2024-03-02T20:02:23;11.80;99.90
9939;DHT22;5008;50.656;7.188;2024-03-02T20:04:52;11.70;99.90
9939;DHT22;5008;50.656;7.188;2024-03-02T20:07:19;11.70;99.90
9939;DHT22;5008;50.656;7.188;2024-03-02T20:09:46;11.70;99.90
9939;DHT22;5008;50.656;7.188;2024-03-02T20:12:13;11.60;99.90
9939;DHT22;5008;50.656;7.188;2024-03-02T20:14:41;11.60;99.90
9939;DHT22;5008;50.656;7.188;2024-03-02T20:17:10;11.50;99.90
9939;DHT22;5008;50.656;7.188;2024-03-02T20:19:39;11.50;99.90
9939;DHT22;5008;50.656;7.188;2024-03-02T20:22:06;11.40;99.90
9939;DHT22;5008;50.656;7.188;2024-03-02T20:24:32;11.30;99.90
9939;DHT22;5008;50.656;7.188;2024-03-02T20:26:59;11.40;99.90
9939;DHT22;5008;50.656;7.188;2024-03-02T20:29:26;11.30;99.90
9939;DHT22;5008;50.656;7.188;2024-03-02T20:32:13;11.30;99.90
9939;DHT22;5008;50.656;7.188;2024-03-02T20:34:39;11.20;99.90
9939;DHT22;5008;50.656;7.188;2024-03-02T20:37:06;11.20;99.90
9939;DHT22;5008;50.656;7.188;2024-03-02T20:39:33;11.00;99.90
9939;DHT22;5008;50.656;7.188;2024-03-02T20:41:59;11.00;99.90
9939;DHT22;5008;50.656;7.188;2024-03-02T20:44:26;11.00;99.90
9939;DHT22;5008;50.656;7.188;2024-03-02T20:46:53;10.90;99.90
9939;DHT22;5008;50.656;7.188;2024-03-02T20:49:21;10.80;99.90
9939;DHT22;5008;50.656;7.188;2024-03-02T20:51:49;10.80;99.90
9939;DHT22;5008;50.656;7.188;2024-03-02T20:54:15;10.70;99.90
9939;DHT22;5008;50.656;7.188;2024-03-02T20:56:44;10.60;99.90
9939;DHT22;5008;50.656;7.188;2024-03-02T20:59:11;10.60;99.90
9939;DHT22;5008;50.656;7.188;2024-03-02T21:01:38;10.50;99.90
9939;DHT22;5008;50.656;7.188;2024-03-02T21:04:04;10.50;99.90
9939;DHT22;5008;50.656;7.188;2024-03-02T21:06:33;10.50;99.90
9939;DHT22;5008;50.656;7.188;2024-03-02T21:08:59;10.50;99.90